sensor_id;sensor_type;location;lat;lon;timestamp;P1;durP1;ratioP1;P2;durP2;ratioP2
35803;SDS011;21924;51.934;7.414;2022-12-18T00:01:59;67.00;;;27.80;;
35803;SDS011;21924;51.934;7.414;2022-12-18T00:04:43;52.30;;;24.47;;
35803;SDS011;21924;51.934;7.414;2022-12-18T00:07:27;66.00;;;27.73;;
35803;SDS011;21924;51.934;7.414;2022-12-18T00:10:11;55.00;;;25.33;;
35803;SDS011;21924;51.934;7.414;2022-12-18T00:12:56;68.67;;;26.70;;
35803;SDS011;21924;51.934;7.414;2022-12-18T00:15:40;64.10;;;28.40;;
35803;SDS011;21924;51.934;7.414;2022-12-18T00:18:24;60.70;;;29.60;;
35803;SDS011;21924;51.934;7.414;2022-12-18T00:21:09;61.20;;;27.80;;
35803;SDS011;21924;51.934;7.414;2022-12-18T00:23:55;70.03;;;28.65;;
35803;SDS011;21924;51.934;7.414;2022-12-18T00:26:39;58.57;;;25.43;;
35803;SDS011;21924;51.934;7.414;2022-12-18T00:29:23;54.37;;;26.17;;
35803;SDS011;21924;51.934;7.414;2022-12-18T00:32:07;61.50;;;28.10;;
35803;SDS011;21924;51.934;7.414;2022-12-18T00:34:52;58.30;;;26.97;;
35803;SDS011;21924;51.934;7.414;2022-12-18T00:37:36;57.53;;;25.00;;
35803;SDS011;21924;51.934;7.414;2022-12-18T00:40:20;64.20;;;26.53;;
35803;SDS011;21924;51.934;7.414;2022-12-18T00:43:04;55.67;;;27.00;;
35803;SDS011;21924;51.934;7.414;2022-12-18T00:45:49;61.97;;;27.33;;
35803;SDS011;21924;51.934;7.414;2022-12-18T00:48:33;60.00;;;27.97;;
35803;SDS011;21924;51.934;7.414;2022-12-18T00:51:17;70.03;;;28.83;;
35803;SDS011;21924;51.934;7.414;2022-12-18T00:54:01;64.07;;;28.47;;
35803;SDS011;21924;51.934;7.414;2022-12-18T00:56:46;51.90;;;24.93;;
35803;SDS011;21924;51.934;7.414;2022-12-18T00:59:30;53.33;;;26.57;;
35803;SDS011;21924;51.934;7.414;2022-12-18T01:02:14;53.23;;;25.63;;
35803;SDS011;21924;51.934;7.414;2022-12-18T01:04:58;56.03;;;25.10;;
35803;SDS011;21924;51.934;7.414;2022-12-18T01:07:43;72.10;;;30.27;;
35803;SDS011;21924;51.934;7.414;2022-12-18T01:10:28;59.47;;;24.97;;
35803;SDS011;21924;51.934;7.414;2022-12-18T01:13:12;53.90;;;24.87;;
35803;SDS011;21924;51.934;7.414;2022-12-18T01:15:56;58.43;;;25.47;;
35803;SDS011;21924;51.934;7.414;2022-12-18T01:18:40;57.67;;;24.93;;
35803;SDS011;21924;51.934;7.414;2022-12-18T01:21:25;66.87;;;25.13;;
35803;SDS011;21924;51.934;7.414;2022-12-18T01:24:09;59.83;;;24.27;;
35803;SDS011;21924;51.934;7.414;2022-12-18T01:26:54;44.40;;;22.63;;
35803;SDS011;21924;51.934;7.414;2022-12-18T01:29:40;53.35;;;24.83;;
35803;SDS011;21924;51.934;7.414;2022-12-18T01:32:25;50.57;;;24.23;;
35803;SDS011;21924;51.934;7.414;2022-12-18T01:35:09;48.33;;;24.13;;
35803;SDS011;21924;51.934;7.414;2022-12-18T01:37:54;57.30;;;25.80;;
35803;SDS011;21924;51.934;7.414;2022-12-18T01:40:39;42.08;;;20.65;;
35803;SDS011;21924;51.934;7.414;2022-12-18T01:43:40;51.60;;;24.03;;
35803;SDS011;21924;51.934;7.414;2022-12-18T01:49:13;47.47;;;22.00;;
35803;SDS011;21924;51.934;7.414;2022-12-18T01:51:58;49.10;;;24.13;;
35803;SDS011;21924;51.934;7.414;2022-12-18T01:54:42;66.50;;;25.40;;
35803;SDS011;21924;51.934;7.414;2022-12-18T01:57:27;51.07;;;24.37;;
35803;SDS011;21924;51.934;7.414;2022-12-18T02:00:16;51.63;;;24.00;;
35803;SDS011;21924;51.934;7.414;2022-12-18T02:03:02;49.53;;;22.10;;
35803;SDS011;21924;51.934;7.414;2022-12-18T02:05:47;48.07;;;23.53;;
35803;SDS011;21924;51.934;7.414;2022-12-18T02:12:03;43.05;;;20.88;;
35803;SDS011;21924;51.934;7.414;2022-12-18T02:17:57;49.83;;;21.80;;
35803;SDS011;21924;51.934;7.414;2022-12-18T02:20:55;34.67;;;20.30;;
35803;SDS011;21924;51.934;7.414;2022-12-18T02:27:01;37.83;;;20.10;;
35803;SDS011;21924;51.934;7.414;2022-12-18T02:29:51;33.90;;;18.50;;
35803;SDS011;21924;51.934;7.414;2022-12-18T02:32:39;36.77;;;19.13;;
35803;SDS011;21924;51.934;7.414;2022-12-18T02:35:27;31.53;;;18.10;;
35803;SDS011;21924;51.934;7.414;2022-12-18T02:38:14;35.97;;;18.43;;
35803;SDS011;21924;51.934;7.414;2022-12-18T02:43:46;26.10;;;15.00;;
35803;SDS011;21924;51.934;7.414;2022-12-18T02:46:33;31.00;;;18.25;;
35803;SDS011;21924;51.934;7.414;2022-12-18T03:01:04;36.20;;;16.33;;
35803;SDS011;21924;51.934;7.414;2022-12-18T03:04:11;27.63;;;16.23;;
35803;SDS011;21924;51.934;7.414;2022-12-18T03:07:02;45.85;;;17.30;;
35803;SDS011;21924;51.934;7.414;2022-12-18T03:09:53;38.27;;;17.23;;
35803;SDS011;21924;51.934;7.414;2022-12-18T03:12:40;38.05;;;17.65;;
35803;SDS011;21924;51.934;7.414;2022-12-18T03:15:29;35.53;;;16.67;;
35803;SDS011;21924;51.934;7.414;2022-12-18T03:21:09;34.20;;;16.77;;
35803;SDS011;21924;51.934;7.414;2022-12-18T03:23:55;31.17;;;17.10;;
35803;SDS011;21924;51.934;7.414;2022-12-18T03:26:41;27.23;;;14.53;;
35803;SDS011;21924;51.934;7.414;2022-12-18T03:32:28;35.43;;;15.73;;
35803;SDS011;21924;51.934;7.414;2022-12-18T03:35:18;28.30;;;15.07;;
35803;SDS011;21924;51.934;7.414;2022-12-18T03:38:06;28.23;;;15.47;;
35803;SDS011;21924;51.934;7.414;2022-12-18T03:44:00;27.63;;;14.87;;
35803;SDS011;21924;51.934;7.414;2022-12-18T03:47:13;26.70;;;14.77;;
35803;SDS011;21924;51.934;7.414;2022-12-18T03:53:09;24.17;;;13.90;;
35803;SDS011;21924;51.934;7.414;2022-12-18T03:56:02;25.40;;;13.60;;
35803;SDS011;21924;51.934;7.414;2022-12-18T03:58:47;25.27;;;15.75;;
35803;SDS011;21924;51.934;7.414;2022-12-18T04:01:38;28.67;;;16.13;;
35803;SDS011;21924;51.934;7.414;2022-12-18T04:04:25;26.50;;;16.13;;
35803;SDS011;21924;51.934;7.414;2022-12-18T04:07:12;33.20;;;16.20;;
35803;SDS011;21924;51.934;7.414;2022-12-18T04:09:58;32.15;;;16.15;;
35803;SDS011;21924;51.934;7.414;2022-12-18T04:12:44;25.23;;;14.15;;
35803;SDS011;21924;51.934;7.414;2022-12-18T04:15:28;24.93;;;15.23;;
35803;SDS011;21924;51.934;7.414;2022-12-18T04:18:12;35.20;;;13.83;;
35803;SDS011;21924;51.934;7.414;2022-12-18T04:20:57;29.03;;;15.57;;
35803;SDS011;21924;51.934;7.414;2022-12-18T04:23:41;30.00;;;14.13;;
35803;SDS011;21924;51.934;7.414;2022-12-18T04:26:25;21.67;;;13.63;;
35803;SDS011;21924;51.934;7.414;2022-12-18T04:29:09;27.00;;;14.50;;
35803;SDS011;21924;51.934;7.414;2022-12-18T04:31:53;25.37;;;15.00;;
35803;SDS011;21924;51.934;7.414;2022-12-18T04:34:38;27.17;;;13.87;;
35803;SDS011;21924;51.934;7.414;2022-12-18T04:37:22;25.67;;;14.33;;
35803;SDS011;21924;51.934;7.414;2022-12-18T04:40:06;20.87;;;12.57;;
35803;SDS011;21924;51.934;7.414;2022-12-18T04:42:52;24.07;;;12.60;;
35803;SDS011;21924;51.934;7.414;2022-12-18T04:45:36;30.93;;;14.43;;
35803;SDS011;21924;51.934;7.414;2022-12-18T04:48:20;25.33;;;13.37;;
35803;SDS011;21924;51.934;7.414;2022-12-18T04:51:04;28.30;;;12.70;;
35803;SDS011;21924;51.934;7.414;2022-12-18T04:53:50;24.92;;;13.45;;
35803;SDS011;21924;51.934;7.414;2022-12-18T04:56:34;19.30;;;13.43;;
35803;SDS011;21924;51.934;7.414;2022-12-18T04:59:19;25.43;;;13.77;;
35803;SDS011;21924;51.934;7.414;2022-12-18T05:02:03;21.50;;;12.73;;
35803;SDS011;21924;51.934;7.414;2022-12-18T05:04:47;33.13;;;13.50;;
35803;SDS011;21924;51.934;7.414;2022-12-18T05:07:31;23.90;;;14.03;;
35803;SDS011;21924;51.934;7.414;2022-12-18T05:10:16;28.03;;;14.70;;
35803;SDS011;21924;51.934;7.414;2022-12-18T05:13:00;23.97;;;13.17;;
35803;SDS011;21924;51.934;7.414;2022-12-18T05:15:50;39.33;;;15.90;;
35803;SDS011;21924;51.934;7.414;2022-12-18T05:18:36;27.50;;;14.27;;
35803;SDS011;21924;51.934;7.414;2022-12-18T05:21:21;26.87;;;13.67;;
35803;SDS011;21924;51.934;7.414;2022-12-18T05:24:05;15.93;;;12.10;;
35803;SDS011;21924;51.934;7.414;2022-12-18T05:26:49;28.20;;;12.20;;
35803;SDS011;21924;51.934;7.414;2022-12-18T05:29:34;27.50;;;13.67;;
35803;SDS011;21924;51.934;7.414;2022-12-18T05:32:18;19.33;;;10.60;;
35803;SDS011;21924;51.934;7.414;2022-12-18T05:35:02;18.57;;;12.17;;
35803;SDS011;21924;51.934;7.414;2022-12-18T05:37:47;20.60;;;13.33;;
35803;SDS011;21924;51.934;7.414;2022-12-18T05:40:32;22.53;;;12.80;;
35803;SDS011;21924;51.934;7.414;2022-12-18T05:43:16;20.13;;;11.97;;
35803;SDS011;21924;51.934;7.414;2022-12-18T05:46:08;22.73;;;11.47;;
35803;SDS011;21924;51.934;7.414;2022-12-18T05:48:59;17.77;;;11.50;;
35803;SDS011;21924;51.934;7.414;2022-12-18T05:51:45;20.43;;;11.53;;
35803;SDS011;21924;51.934;7.414;2022-12-18T05:54:29;24.47;;;12.70;;
35803;SDS011;21924;51.934;7.414;2022-12-18T05:57:14;21.40;;;11.00;;
35803;SDS011;21924;51.934;7.414;2022-12-18T05:59:58;19.27;;;11.03;;
35803;SDS011;21924;51.934;7.414;2022-12-18T06:02:46;24.07;;;11.27;;
35803;SDS011;21924;51.934;7.414;2022-12-18T06:05:34;14.77;;;11.33;;
35803;SDS011;21924;51.934;7.414;2022-12-18T06:08:19;26.80;;;11.10;;
35803;SDS011;21924;51.934;7.414;2022-12-18T06:11:03;17.60;;;11.23;;
35803;SDS011;21924;51.934;7.414;2022-12-18T06:13:51;15.07;;;9.83;;
35803;SDS011;21924;51.934;7.414;2022-12-18T06:16:36;18.07;;;11.57;;
35803;SDS011;21924;51.934;7.414;2022-12-18T06:19:20;13.70;;;10.13;;
35803;SDS011;21924;51.934;7.414;2022-12-18T06:22:04;14.47;;;9.70;;
35803;SDS011;21924;51.934;7.414;2022-12-18T06:24:49;16.83;;;9.63;;
35803;SDS011;21924;51.934;7.414;2022-12-18T06:27:33;15.50;;;10.37;;
35803;SDS011;21924;51.934;7.414;2022-12-18T06:30:17;17.93;;;10.57;;
35803;SDS011;21924;51.934;7.414;2022-12-18T06:33:02;15.40;;;9.60;;
35803;SDS011;21924;51.934;7.414;2022-12-18T06:35:46;20.30;;;9.40;;
35803;SDS011;21924;51.934;7.414;2022-12-18T06:38:31;15.37;;;9.77;;
35803;SDS011;21924;51.934;7.414;2022-12-18T06:41:17;14.52;;;9.52;;
35803;SDS011;21924;51.934;7.414;2022-12-18T06:44:03;13.50;;;8.57;;
35803;SDS011;21924;51.934;7.414;2022-12-18T06:46:47;15.93;;;9.73;;
35803;SDS011;21924;51.934;7.414;2022-12-18T06:49:32;15.10;;;9.53;;
35803;SDS011;21924;51.934;7.414;2022-12-18T06:52:16;27.53;;;12.13;;
35803;SDS011;21924;51.934;7.414;2022-12-18T06:55:00;19.63;;;12.30;;
35803;SDS011;21924;51.934;7.414;2022-12-18T06:57:44;25.67;;;12.27;;
35803;SDS011;21924;51.934;7.414;2022-12-18T07:00:28;29.37;;;12.77;;
35803;SDS011;21924;51.934;7.414;2022-12-18T07:03:12;35.93;;;15.27;;
35803;SDS011;21924;51.934;7.414;2022-12-18T07:05:57;25.57;;;14.13;;
35803;SDS011;21924;51.934;7.414;2022-12-18T07:08:41;38.67;;;16.00;;
35803;SDS011;21924;51.934;7.414;2022-12-18T07:11:26;29.67;;;13.60;;
35803;SDS011;21924;51.934;7.414;2022-12-18T07:14:09;22.80;;;12.10;;
35803;SDS011;21924;51.934;7.414;2022-12-18T07:16:54;18.23;;;11.63;;
35803;SDS011;21924;51.934;7.414;2022-12-18T07:19:38;15.50;;;10.47;;
35803;SDS011;21924;51.934;7.414;2022-12-18T07:22:23;14.73;;;9.77;;
35803;SDS011;21924;51.934;7.414;2022-12-18T07:25:09;14.27;;;10.57;;
35803;SDS011;21924;51.934;7.414;2022-12-18T07:27:53;15.63;;;9.23;;
35803;SDS011;21924;51.934;7.414;2022-12-18T07:30:38;18.70;;;9.80;;
35803;SDS011;21924;51.934;7.414;2022-12-18T07:33:22;18.97;;;10.07;;
35803;SDS011;21924;51.934;7.414;2022-12-18T07:36:07;14.17;;;8.43;;
35803;SDS011;21924;51.934;7.414;2022-12-18T07:38:52;13.25;;;7.65;;
35803;SDS011;21924;51.934;7.414;2022-12-18T07:41:37;17.70;;;10.17;;
35803;SDS011;21924;51.934;7.414;2022-12-18T07:44:21;19.17;;;9.47;;
35803;SDS011;21924;51.934;7.414;2022-12-18T07:47:05;18.33;;;10.87;;
35803;SDS011;21924;51.934;7.414;2022-12-18T07:49:49;17.53;;;10.63;;
35803;SDS011;21924;51.934;7.414;2022-12-18T07:52:34;13.63;;;9.57;;
35803;SDS011;21924;51.934;7.414;2022-12-18T07:55:18;15.50;;;10.43;;
35803;SDS011;21924;51.934;7.414;2022-12-18T07:58:03;22.50;;;9.87;;
35803;SDS011;21924;51.934;7.414;2022-12-18T08:00:47;16.27;;;9.53;;
35803;SDS011;21924;51.934;7.414;2022-12-18T08:03:32;12.57;;;10.03;;
35803;SDS011;21924;51.934;7.414;2022-12-18T08:06:16;30.77;;;10.57;;
35803;SDS011;21924;51.934;7.414;2022-12-18T08:09:00;23.70;;;10.57;;
35803;SDS011;21924;51.934;7.414;2022-12-18T08:11:45;15.20;;;9.47;;
35803;SDS011;21924;51.934;7.414;2022-12-18T08:14:29;19.80;;;9.87;;
35803;SDS011;21924;51.934;7.414;2022-12-18T08:17:13;17.47;;;9.80;;
35803;SDS011;21924;51.934;7.414;2022-12-18T08:19:57;16.83;;;9.70;;
35803;SDS011;21924;51.934;7.414;2022-12-18T08:22:42;18.70;;;11.40;;
35803;SDS011;21924;51.934;7.414;2022-12-18T08:25:26;15.87;;;10.70;;
35803;SDS011;21924;51.934;7.414;2022-12-18T08:28:10;14.43;;;9.83;;
35803;SDS011;21924;51.934;7.414;2022-12-18T08:30:55;16.43;;;10.77;;
35803;SDS011;21924;51.934;7.414;2022-12-18T08:33:40;16.33;;;10.57;;
35803;SDS011;21924;51.934;7.414;2022-12-18T08:36:24;20.87;;;10.67;;
35803;SDS011;21924;51.934;7.414;2022-12-18T08:39:09;21.17;;;9.97;;
35803;SDS011;21924;51.934;7.414;2022-12-18T08:41:53;14.27;;;9.43;;
35803;SDS011;21924;51.934;7.414;2022-12-18T08:44:57;17.53;;;10.60;;
35803;SDS011;21924;51.934;7.414;2022-12-18T08:47:41;18.53;;;10.57;;
35803;SDS011;21924;51.934;7.414;2022-12-18T08:50:25;15.37;;;10.63;;
35803;SDS011;21924;51.934;7.414;2022-12-18T08:53:10;15.93;;;9.87;;
35803;SDS011;21924;51.934;7.414;2022-12-18T08:55:55;16.53;;;11.50;;
35803;SDS011;21924;51.934;7.414;2022-12-18T08:58:40;17.95;;;11.05;;
35803;SDS011;21924;51.934;7.414;2022-12-18T09:01:25;16.50;;;9.23;;
35803;SDS011;21924;51.934;7.414;2022-12-18T09:04:09;17.27;;;10.07;;
35803;SDS011;21924;51.934;7.414;2022-12-18T09:06:53;17.53;;;9.27;;
35803;SDS011;21924;51.934;7.414;2022-12-18T09:09:39;17.97;;;9.83;;
35803;SDS011;21924;51.934;7.414;2022-12-18T09:12:23;14.40;;;9.30;;
35803;SDS011;21924;51.934;7.414;2022-12-18T09:15:07;16.20;;;9.97;;
35803;SDS011;21924;51.934;7.414;2022-12-18T09:17:51;17.87;;;9.73;;
35803;SDS011;21924;51.934;7.414;2022-12-18T09:20:36;12.93;;;9.53;;
35803;SDS011;21924;51.934;7.414;2022-12-18T09:23:21;17.37;;;9.80;;
35803;SDS011;21924;51.934;7.414;2022-12-18T09:26:06;15.43;;;9.93;;
35803;SDS011;21924;51.934;7.414;2022-12-18T09:28:51;13.27;;;9.73;;
35803;SDS011;21924;51.934;7.414;2022-12-18T09:31:36;14.20;;;9.47;;
35803;SDS011;21924;51.934;7.414;2022-12-18T09:34:21;16.17;;;9.70;;
35803;SDS011;21924;51.934;7.414;2022-12-18T09:37:05;13.87;;;8.93;;
35803;SDS011;21924;51.934;7.414;2022-12-18T09:39:50;18.97;;;10.10;;
35803;SDS011;21924;51.934;7.414;2022-12-18T09:42:34;20.37;;;11.07;;
35803;SDS011;21924;51.934;7.414;2022-12-18T09:45:18;16.67;;;9.50;;
35803;SDS011;21924;51.934;7.414;2022-12-18T09:48:03;19.63;;;11.90;;
35803;SDS011;21924;51.934;7.414;2022-12-18T09:50:48;20.40;;;12.17;;
35803;SDS011;21924;51.934;7.414;2022-12-18T09:56:21;10.52;;;8.38;;
35803;SDS011;21924;51.934;7.414;2022-12-18T09:59:41;13.07;;;9.47;;
35803;SDS011;21924;51.934;7.414;2022-12-18T10:02:22;18.93;;;10.50;;
35803;SDS011;21924;51.934;7.414;2022-12-18T10:05:12;15.57;;;10.47;;
35803;SDS011;21924;51.934;7.414;2022-12-18T10:08:03;21.50;;;11.87;;
35803;SDS011;21924;51.934;7.414;2022-12-18T10:10:53;12.63;;;9.03;;
35803;SDS011;21924;51.934;7.414;2022-12-18T10:13:42;12.37;;;8.63;;
35803;SDS011;21924;51.934;7.414;2022-12-18T10:19:43;13.53;;;9.53;;
35803;SDS011;21924;51.934;7.414;2022-12-18T10:25:34;13.60;;;9.27;;
35803;SDS011;21924;51.934;7.414;2022-12-18T10:28:20;16.77;;;9.67;;
35803;SDS011;21924;51.934;7.414;2022-12-18T10:31:07;12.43;;;9.52;;
35803;SDS011;21924;51.934;7.414;2022-12-18T10:33:57;17.03;;;9.00;;
35803;SDS011;21924;51.934;7.414;2022-12-18T10:36:42;19.10;;;9.83;;
35803;SDS011;21924;51.934;7.414;2022-12-18T10:39:26;16.40;;;10.20;;
35803;SDS011;21924;51.934;7.414;2022-12-18T10:42:14;16.63;;;9.57;;
35803;SDS011;21924;51.934;7.414;2022-12-18T10:45:13;16.33;;;9.57;;
35803;SDS011;21924;51.934;7.414;2022-12-18T10:47:59;14.60;;;9.77;;
35803;SDS011;21924;51.934;7.414;2022-12-18T10:50:46;16.60;;;9.83;;
35803;SDS011;21924;51.934;7.414;2022-12-18T10:53:33;14.67;;;9.53;;
35803;SDS011;21924;51.934;7.414;2022-12-18T10:56:20;17.70;;;10.23;;
35803;SDS011;21924;51.934;7.414;2022-12-18T10:59:05;16.40;;;10.17;;
35803;SDS011;21924;51.934;7.414;2022-12-18T11:01:52;21.37;;;9.90;;
35803;SDS011;21924;51.934;7.414;2022-12-18T11:04:49;22.20;;;9.77;;
35803;SDS011;21924;51.934;7.414;2022-12-18T11:07:48;19.43;;;11.23;;
35803;SDS011;21924;51.934;7.414;2022-12-18T11:10:35;20.87;;;11.13;;
35803;SDS011;21924;51.934;7.414;2022-12-18T11:13:23;16.20;;;10.07;;
35803;SDS011;21924;51.934;7.414;2022-12-18T11:16:17;15.30;;;10.80;;
35803;SDS011;21924;51.934;7.414;2022-12-18T11:19:14;16.43;;;9.60;;
35803;SDS011;21924;51.934;7.414;2022-12-18T11:22:23;12.90;;;8.85;;
35803;SDS011;21924;51.934;7.414;2022-12-18T11:28:08;18.33;;;9.53;;
35803;SDS011;21924;51.934;7.414;2022-12-18T11:31:25;12.20;;;9.70;;
35803;SDS011;21924;51.934;7.414;2022-12-18T11:34:22;17.70;;;11.73;;
35803;SDS011;21924;51.934;7.414;2022-12-18T11:37:12;17.83;;;11.80;;
35803;SDS011;21924;51.934;7.414;2022-12-18T11:40:02;14.13;;;9.27;;
35803;SDS011;21924;51.934;7.414;2022-12-18T11:46:02;15.65;;;9.88;;
35803;SDS011;21924;51.934;7.414;2022-12-18T11:52:04;17.37;;;9.83;;
35803;SDS011;21924;51.934;7.414;2022-12-18T11:58:35;14.83;;;9.53;;
35803;SDS011;21924;51.934;7.414;2022-12-18T12:01:34;12.90;;;8.93;;
35803;SDS011;21924;51.934;7.414;2022-12-18T12:04:45;14.47;;;9.67;;
35803;SDS011;21924;51.934;7.414;2022-12-18T12:07:47;18.23;;;10.53;;
35803;SDS011;21924;51.934;7.414;2022-12-18T12:14:04;16.30;;;10.27;;
35803;SDS011;21924;51.934;7.414;2022-12-18T12:17:13;19.67;;;10.73;;
35803;SDS011;21924;51.934;7.414;2022-12-18T12:20:23;18.63;;;9.90;;
35803;SDS011;21924;51.934;7.414;2022-12-18T12:23:36;14.98;;;11.20;;
35803;SDS011;21924;51.934;7.414;2022-12-18T12:35:38;16.77;;;11.50;;
35803;SDS011;21924;51.934;7.414;2022-12-18T12:39:06;19.37;;;10.40;;
35803;SDS011;21924;51.934;7.414;2022-12-18T12:41:57;21.10;;;12.40;;
35803;SDS011;21924;51.934;7.414;2022-12-18T12:45:00;19.67;;;10.63;;
35803;SDS011;21924;51.934;7.414;2022-12-18T12:47:49;22.67;;;12.87;;
35803;SDS011;21924;51.934;7.414;2022-12-18T12:53:23;18.35;;;11.88;;
35803;SDS011;21924;51.934;7.414;2022-12-18T12:56:13;22.73;;;11.67;;
35803;SDS011;21924;51.934;7.414;2022-12-18T12:59:02;14.33;;;10.53;;
35803;SDS011;21924;51.934;7.414;2022-12-18T13:08:11;19.90;;;10.47;;
35803;SDS011;21924;51.934;7.414;2022-12-18T13:11:15;21.45;;;12.73;;
35803;SDS011;21924;51.934;7.414;2022-12-18T13:14:34;22.33;;;11.43;;
35803;SDS011;21924;51.934;7.414;2022-12-18T13:20:11;18.73;;;10.67;;
35803;SDS011;21924;51.934;7.414;2022-12-18T13:22:57;19.00;;;11.37;;
35803;SDS011;21924;51.934;7.414;2022-12-18T13:25:41;17.57;;;10.60;;
35803;SDS011;21924;51.934;7.414;2022-12-18T13:34:23;21.30;;;11.60;;
35803;SDS011;21924;51.934;7.414;2022-12-18T13:43:23;23.60;;;13.27;;
35803;SDS011;21924;51.934;7.414;2022-12-18T13:46:18;66.78;;;15.23;;
35803;SDS011;21924;51.934;7.414;2022-12-18T13:49:04;31.03;;;13.93;;
35803;SDS011;21924;51.934;7.414;2022-12-18T13:51:55;18.97;;;11.13;;
35803;SDS011;21924;51.934;7.414;2022-12-18T13:54:40;18.17;;;10.97;;
35803;SDS011;21924;51.934;7.414;2022-12-18T13:57:38;24.88;;;12.05;;
35803;SDS011;21924;51.934;7.414;2022-12-18T14:00:30;19.57;;;11.80;;
35803;SDS011;21924;51.934;7.414;2022-12-18T14:03:19;23.50;;;11.20;;
35803;SDS011;21924;51.934;7.414;2022-12-18T14:06:10;29.20;;;13.47;;
35803;SDS011;21924;51.934;7.414;2022-12-18T14:08:56;29.23;;;14.23;;
35803;SDS011;21924;51.934;7.414;2022-12-18T14:11:45;29.50;;;11.73;;
35803;SDS011;21924;51.934;7.414;2022-12-18T14:14:31;71.93;;;21.07;;
35803;SDS011;21924;51.934;7.414;2022-12-18T14:17:15;74.43;;;19.70;;
35803;SDS011;21924;51.934;7.414;2022-12-18T14:20:00;33.63;;;13.97;;
35803;SDS011;21924;51.934;7.414;2022-12-18T14:22:45;30.73;;;13.73;;
35803;SDS011;21924;51.934;7.414;2022-12-18T14:25:30;19.73;;;11.50;;
35803;SDS011;21924;51.934;7.414;2022-12-18T14:28:15;22.83;;;12.97;;
35803;SDS011;21924;51.934;7.414;2022-12-18T14:31:00;19.20;;;12.43;;
35803;SDS011;21924;51.934;7.414;2022-12-18T14:33:44;22.13;;;12.03;;
35803;SDS011;21924;51.934;7.414;2022-12-18T14:36:29;22.37;;;12.47;;
35803;SDS011;21924;51.934;7.414;2022-12-18T14:39:16;21.53;;;12.47;;
35803;SDS011;21924;51.934;7.414;2022-12-18T14:42:01;23.50;;;12.37;;
35803;SDS011;21924;51.934;7.414;2022-12-18T14:44:46;22.23;;;12.23;;
35803;SDS011;21924;51.934;7.414;2022-12-18T14:47:30;22.23;;;12.63;;
35803;SDS011;21924;51.934;7.414;2022-12-18T14:50:14;19.83;;;12.13;;
35803;SDS011;21924;51.934;7.414;2022-12-18T14:52:59;17.83;;;11.30;;
35803;SDS011;21924;51.934;7.414;2022-12-18T14:55:45;18.80;;;11.93;;
35803;SDS011;21924;51.934;7.414;2022-12-18T14:58:31;24.33;;;12.40;;
35803;SDS011;21924;51.934;7.414;2022-12-18T15:01:19;21.13;;;13.10;;
35803;SDS011;21924;51.934;7.414;2022-12-18T15:04:25;19.00;;;11.33;;
35803;SDS011;21924;51.934;7.414;2022-12-18T15:07:19;23.30;;;12.03;;
35803;SDS011;21924;51.934;7.414;2022-12-18T15:15:45;21.13;;;12.40;;
35803;SDS011;21924;51.934;7.414;2022-12-18T15:18:32;21.15;;;11.27;;
35803;SDS011;21924;51.934;7.414;2022-12-18T15:21:20;22.47;;;11.60;;
35803;SDS011;21924;51.934;7.414;2022-12-18T15:24:13;23.43;;;10.90;;
35803;SDS011;21924;51.934;7.414;2022-12-18T15:27:02;20.90;;;11.37;;
35803;SDS011;21924;51.934;7.414;2022-12-18T15:29:59;20.20;;;11.30;;
35803;SDS011;21924;51.934;7.414;2022-12-18T15:36:09;17.57;;;11.30;;
35803;SDS011;21924;51.934;7.414;2022-12-18T15:38:55;16.47;;;11.20;;
35803;SDS011;21924;51.934;7.414;2022-12-18T15:41:41;20.02;;;12.02;;
35803;SDS011;21924;51.934;7.414;2022-12-18T15:44:45;22.17;;;10.93;;
35803;SDS011;21924;51.934;7.414;2022-12-18T15:47:29;24.17;;;12.50;;
35803;SDS011;21924;51.934;7.414;2022-12-18T15:50:13;21.97;;;12.00;;
35803;SDS011;21924;51.934;7.414;2022-12-18T15:52:58;22.30;;;12.67;;
35803;SDS011;21924;51.934;7.414;2022-12-18T15:55:42;25.63;;;13.90;;
35803;SDS011;21924;51.934;7.414;2022-12-18T15:59:12;17.47;;;11.47;;
35803;SDS011;21924;51.934;7.414;2022-12-18T16:02:07;22.37;;;12.47;;
35803;SDS011;21924;51.934;7.414;2022-12-18T16:05:00;30.70;;;12.67;;
35803;SDS011;21924;51.934;7.414;2022-12-18T16:07:44;25.40;;;13.60;;
35803;SDS011;21924;51.934;7.414;2022-12-18T16:10:29;21.23;;;12.93;;
35803;SDS011;21924;51.934;7.414;2022-12-18T16:13:14;22.03;;;12.73;;
35803;SDS011;21924;51.934;7.414;2022-12-18T16:16:02;22.23;;;12.90;;
35803;SDS011;21924;51.934;7.414;2022-12-18T16:18:46;20.40;;;12.17;;
35803;SDS011;21924;51.934;7.414;2022-12-18T16:21:31;23.60;;;11.40;;
35803;SDS011;21924;51.934;7.414;2022-12-18T16:24:16;27.73;;;13.70;;
35803;SDS011;21924;51.934;7.414;2022-12-18T16:27:05;23.00;;;11.90;;
35803;SDS011;21924;51.934;7.414;2022-12-18T16:29:50;22.33;;;12.77;;
35803;SDS011;21924;51.934;7.414;2022-12-18T16:32:35;25.20;;;13.67;;
35803;SDS011;21924;51.934;7.414;2022-12-18T16:35:19;23.90;;;13.40;;
35803;SDS011;21924;51.934;7.414;2022-12-18T16:38:04;21.30;;;13.17;;
35803;SDS011;21924;51.934;7.414;2022-12-18T16:40:49;28.93;;;13.83;;
35803;SDS011;21924;51.934;7.414;2022-12-18T16:43:52;31.63;;;15.00;;
35803;SDS011;21924;51.934;7.414;2022-12-18T16:46:37;19.07;;;12.40;;
35803;SDS011;21924;51.934;7.414;2022-12-18T16:49:22;26.90;;;13.53;;
35803;SDS011;21924;51.934;7.414;2022-12-18T16:52:06;21.47;;;13.17;;
35803;SDS011;21924;51.934;7.414;2022-12-18T16:54:51;24.63;;;13.23;;
35803;SDS011;21924;51.934;7.414;2022-12-18T16:57:35;20.43;;;12.87;;
35803;SDS011;21924;51.934;7.414;2022-12-18T17:00:19;18.13;;;11.30;;
35803;SDS011;21924;51.934;7.414;2022-12-18T17:03:03;18.87;;;11.33;;
35803;SDS011;21924;51.934;7.414;2022-12-18T17:05:48;21.47;;;11.83;;
35803;SDS011;21924;51.934;7.414;2022-12-18T17:08:32;16.63;;;11.00;;
35803;SDS011;21924;51.934;7.414;2022-12-18T17:11:16;16.33;;;10.50;;
35803;SDS011;21924;51.934;7.414;2022-12-18T17:14:07;19.27;;;10.83;;
35803;SDS011;21924;51.934;7.414;2022-12-18T17:16:53;22.37;;;11.47;;
35803;SDS011;21924;51.934;7.414;2022-12-18T17:19:37;23.63;;;11.80;;
35803;SDS011;21924;51.934;7.414;2022-12-18T17:22:22;35.50;;;16.33;;
35803;SDS011;21924;51.934;7.414;2022-12-18T17:25:06;23.33;;;12.53;;
35803;SDS011;21924;51.934;7.414;2022-12-18T17:27:50;21.87;;;11.67;;
35803;SDS011;21924;51.934;7.414;2022-12-18T17:30:35;21.40;;;11.33;;
35803;SDS011;21924;51.934;7.414;2022-12-18T17:33:19;15.67;;;11.30;;
35803;SDS011;21924;51.934;7.414;2022-12-18T17:36:04;18.40;;;11.10;;
35803;SDS011;21924;51.934;7.414;2022-12-18T17:38:49;19.73;;;11.07;;
35803;SDS011;21924;51.934;7.414;2022-12-18T17:41:37;19.13;;;10.70;;
35803;SDS011;21924;51.934;7.414;2022-12-18T17:44:22;20.10;;;12.43;;
35803;SDS011;21924;51.934;7.414;2022-12-18T17:47:07;22.90;;;12.33;;
35803;SDS011;21924;51.934;7.414;2022-12-18T17:49:54;42.30;;;14.43;;
35803;SDS011;21924;51.934;7.414;2022-12-18T17:52:39;27.70;;;13.83;;
35803;SDS011;21924;51.934;7.414;2022-12-18T17:55:23;19.43;;;12.93;;
35803;SDS011;21924;51.934;7.414;2022-12-18T17:58:08;25.73;;;14.97;;
35803;SDS011;21924;51.934;7.414;2022-12-18T18:00:52;22.97;;;13.77;;
35803;SDS011;21924;51.934;7.414;2022-12-18T18:03:36;16.40;;;11.83;;
35803;SDS011;21924;51.934;7.414;2022-12-18T18:06:21;18.17;;;11.47;;
35803;SDS011;21924;51.934;7.414;2022-12-18T18:09:06;16.97;;;11.07;;